Time;durP1;ratioP1;P1;durP2;ratioP2;P2;SDS_P1;SDS_P2;PMS_P1;PMS_P2;Temp;Humidity;BMP_temperature;BMP_pressure;BME280_temperature;BME280_humidity;BME280_pressure;Samples;Min_cycle;Max_cycle;Signal;HPM_P1;HPM_P2
2021/04/25 00:00:26;;;;;;;1.80;0.97;;;;;;;;;;5034528;28;20391;-74
2021/04/25 00:02:51;;;;;;;1.80;0.97;;;;;;;;;;5016801;28;20049;-74
2021/04/25 00:05:17;;;;;;;2.50;0.90;;;;;;;;;;5016778;28;20100;-74
2021/04/25 00:07:43;;;;;;;1.65;0.90;;;;;;;;;;5016755;28;20041;-74
2021/04/25 00:10:10;;;;;;;1.53;1.00;;;;;;;;;;5032299;23;20037;-76
2021/04/25 00:12:35;;;;;;;1.83;0.98;;;;;;;;;;5021613;28;20510;-75
2021/04/25 00:15:00;;;;;;;1.80;0.93;;;;;;;;;;5038167;28;20120;-75
2021/04/25 00:17:26;;;;;;;2.27;0.90;;;;;;;;;;5022472;28;20036;-75
2021/04/25 00:19:51;;;;;;;2.83;1.00;;;;;;;;;;5039915;28;20062;-75
2021/04/25 00:22:17;;;;;;;1.87;1.00;;;;;;;;;;5039684;28;20199;-75
2021/04/25 00:24:42;;;;;;;2.03;1.00;;;;;;;;;;5030832;28;20040;-76
2021/04/25 00:27:07;;;;;;;2.07;1.13;;;;;;;;;;5019474;28;20033;-76
2021/04/25 00:29:33;;;;;;;1.70;0.90;;;;;;;;;;5035951;28;20089;-75
2021/04/25 00:31:58;;;;;;;1.83;1.00;;;;;;;;;;5019956;28;20129;-75
2021/04/25 00:34:24;;;;;;;2.10;0.83;;;;;;;;;;5019493;28;20079;-75
2021/04/25 00:36:49;;;;;;;1.90;1.10;;;;;;;;;;5019354;28;20040;-75
2021/04/25 00:39:14;;;;;;;1.33;0.90;;;;;;;;;;5019390;28;20503;-75
2021/04/25 00:41:39;;;;;;;1.97;1.07;;;;;;;;;;5035865;28;20569;-75
2021/04/25 00:44:08;;;;;;;2.10;1.00;;;;;;;;;;5018899;28;20463;-75
2021/04/25 00:46:33;;;;;;;1.85;0.95;;;;;;;;;;5019039;28;20048;-75
2021/04/25 00:48:58;;;;;;;1.87;0.83;;;;;;;;;;5019324;28;20033;-75
2021/04/25 00:51:24;;;;;;;1.80;0.90;;;;;;;;;;5022140;28;20064;-75
2021/04/25 00:53:49;;;;;;;2.50;0.90;;;;;;;;;;5039168;28;20092;-75
2021/04/25 00:56:14;;;;;;;1.93;0.90;;;;;;;;;;5038992;28;20052;-75
2021/04/25 00:58:40;;;;;;;3.23;1.00;;;;;;;;;;5038762;28;20119;-75
2021/04/25 01:01:05;;;;;;;1.83;1.00;;;;;;;;;;5038776;28;20052;-75
2021/04/25 01:03:30;;;;;;;2.30;0.90;;;;;;;;;;5038716;28;20044;-76
2021/04/25 01:05:56;;;;;;;1.20;0.77;;;;;;;;;;5038975;28;20115;-75
2021/04/25 01:08:21;;;;;;;2.10;1.10;;;;;;;;;;5038650;28;20498;-75
2021/04/25 01:10:46;;;;;;;1.87;0.87;;;;;;;;;;5073115;28;20033;-75
2021/04/25 01:13:12;;;;;;;1.77;0.90;;;;;;;;;;5038951;28;20052;-75
2021/04/25 01:15:37;;;;;;;1.83;1.00;;;;;;;;;;5038513;28;20064;-75
2021/04/25 01:18:03;;;;;;;2.23;0.83;;;;;;;;;;5039417;28;20032;-75
2021/04/25 01:20:28;;;;;;;1.67;0.97;;;;;;;;;;5038560;28;20028;-75
2021/04/25 01:22:53;;;;;;;2.07;0.97;;;;;;;;;;5038355;28;20039;-75
2021/04/25 01:25:20;;;;;;;1.57;0.80;;;;;;;;;;5055109;28;20485;-75
2021/04/25 01:27:45;;;;;;;2.47;0.98;;;;;;;;;;5031941;28;20039;-76
2021/04/25 01:30:12;;;;;;;1.60;1.00;;;;;;;;;;5035112;28;20025;-75
2021/04/25 01:32:39;;;;;;;;;;;;;;;;;;5019183;28;20059;-75
2021/04/25 01:35:05;;;;;;;1.63;0.80;;;;;;;;;;5034956;28;19962;-75
2021/04/25 01:37:30;;;;;;;2.13;1.00;;;;;;;;;;5035072;28;20115;-75
2021/04/25 01:39:56;;;;;;;1.23;0.80;;;;;;;;;;5018692;28;20511;-75
2021/04/25 01:42:21;;;;;;;1.92;1.05;;;;;;;;;;5018641;28;20060;-75
2021/04/25 01:44:47;;;;;;;1.83;1.10;;;;;;;;;;5018589;28;20527;-75
2021/04/25 01:47:12;;;;;;;1.67;0.90;;;;;;;;;;5018455;28;20519;-75
2021/04/25 01:49:37;;;;;;;1.57;0.90;;;;;;;;;;5034933;28;20541;-76
2021/04/25 01:52:03;;;;;;;1.43;0.80;;;;;;;;;;5018952;28;20056;-75
2021/04/25 01:54:28;;;;;;;1.87;0.97;;;;;;;;;;5018464;28;20021;-75
2021/04/25 01:56:54;;;;;;;1.63;0.90;;;;;;;;;;5020895;28;20068;-75
2021/04/25 01:59:19;;;;;;;1.70;0.97;;;;;;;;;;5022459;28;20036;-75
2021/04/25 02:01:44;;;;;;;2.00;1.00;;;;;;;;;;5038918;28;20057;-75
2021/04/25 02:04:10;;;;;;;2.10;1.13;;;;;;;;;;5022303;28;20495;-75
2021/04/25 02:06:37;;;;;;;2.93;1.10;;;;;;;;;;5022394;28;20452;-75
2021/04/25 02:09:03;;;;;;;1.60;0.90;;;;;;;;;;5022411;28;20094;-75
2021/04/25 02:11:29;;;;;;;2.17;1.10;;;;;;;;;;5022098;28;20487;-75
2021/04/25 02:13:54;;;;;;;1.97;1.00;;;;;;;;;;5022270;28;20082;-75
2021/04/25 02:16:20;;;;;;;1.20;0.70;;;;;;;;;;5022081;28;20063;-75
2021/04/25 02:18:45;;;;;;;1.93;0.87;;;;;;;;;;5022062;28;20514;-75
2021/04/25 02:21:10;;;;;;;1.87;1.00;;;;;;;;;;5022211;28;20519;-75
2021/04/25 02:23:35;;;;;;;1.97;1.00;;;;;;;;;;5038321;28;20498;-75
2021/04/25 02:26:01;;;;;;;2.00;0.90;;;;;;;;;;5038490;28;20065;-75
2021/04/25 02:28:26;;;;;;;1.53;0.77;;;;;;;;;;5021784;28;20116;-76
2021/04/25 02:30:52;;;;;;;1.93;0.90;;;;;;;;;;5038292;28;20484;-75
2021/04/25 02:33:17;;;;;;;1.50;0.87;;;;;;;;;;5021677;28;20033;-76
2021/04/25 02:35:42;;;;;;;1.80;0.90;;;;;;;;;;5021792;28;20033;-75
2021/04/25 02:38:08;;;;;;;1.97;1.00;;;;;;;;;;5021890;28;20064;-76
2021/04/25 02:40:35;;;;;;;1.67;0.87;;;;;;;;;;5021587;28;20064;-76
2021/04/25 02:43:00;;;;;;;;;;;;;;;;;;5021963;28;20033;-76
2021/04/25 02:45:26;;;;;;;2.55;1.00;;;;;;;;;;5037886;28;19909;-76
2021/04/25 02:47:54;;;;;;;1.17;0.70;;;;;;;;;;5022031;28;20029;-76
2021/04/25 02:50:21;;;;;;;2.20;1.00;;;;;;;;;;5021706;28;20029;-76
2021/04/25 02:52:46;;;;;;;1.40;0.90;;;;;;;;;;5021370;28;20121;-75
2021/04/25 02:55:12;;;;;;;2.07;1.03;;;;;;;;;;5037781;28;20508;-75
2021/04/25 02:57:38;;;;;;;1.83;0.93;;;;;;;;;;5021350;28;20143;-76
2021/04/25 03:00:04;;;;;;;;;;;;;;;;;;5038580;28;20037;-75
2021/04/25 03:02:30;;;;;;;1.90;1.00;;;;;;;;;;5054081;28;19920;-76
2021/04/25 03:04:55;;;;;;;1.87;0.97;;;;;;;;;;5021062;28;20029;-75
2021/04/25 03:07:21;;;;;;;2.23;1.07;;;;;;;;;;5036854;28;20036;-76
2021/04/25 03:09:46;;;;;;;1.38;0.90;;;;;;;;;;5037633;28;20065;-76
2021/04/25 03:12:12;;;;;;;2.00;1.00;;;;;;;;;;5021152;28;20076;-76
2021/04/25 03:14:37;;;;;;;2.10;1.10;;;;;;;;;;5020909;28;20060;-76
2021/04/25 03:17:03;;;;;;;2.30;1.17;;;;;;;;;;5020962;28;20090;-76
2021/04/25 03:19:28;;;;;;;2.23;1.03;;;;;;;;;;5020965;28;20060;-76
2021/04/25 03:21:53;;;;;;;2.53;1.03;;;;;;;;;;5020869;28;20121;-76
2021/04/25 03:24:19;;;;;;;2.13;1.00;;;;;;;;;;5037433;28;20431;-75
2021/04/25 03:26:45;;;;;;;2.73;1.03;;;;;;;;;;5020755;28;20037;-76
2021/04/25 03:29:10;;;;;;;2.77;1.10;;;;;;;;;;5020812;28;20036;-75
2021/04/25 03:31:35;;;;;;;2.63;1.00;;;;;;;;;;5020658;28;20469;-76
2021/04/25 03:34:00;;;;;;;2.13;1.17;;;;;;;;;;5020703;28;20114;-75
2021/04/25 03:36:26;;;;;;;1.87;1.07;;;;;;;;;;5037096;28;20078;-75
2021/04/25 03:38:51;;;;;;;2.13;1.00;;;;;;;;;;5037074;28;20128;-75
2021/04/25 03:41:17;;;;;;;1.80;0.93;;;;;;;;;;5020595;28;20032;-75
2021/04/25 03:43:42;;;;;;;2.03;1.00;;;;;;;;;;5020299;28;20057;-75
2021/04/25 03:46:07;;;;;;;1.80;1.10;;;;;;;;;;5020466;28;20069;-75
2021/04/25 03:48:33;;;;;;;1.83;0.90;;;;;;;;;;5020396;28;20498;-75
2021/04/25 03:50:58;;;;;;;2.30;1.13;;;;;;;;;;5036890;28;20440;-75
2021/04/25 03:53:24;;;;;;;2.00;1.07;;;;;;;;;;5020299;28;20516;-75
2021/04/25 03:55:49;;;;;;;1.93;1.10;;;;;;;;;;5020244;28;20398;-75
2021/04/25 03:58:14;;;;;;;2.23;1.20;;;;;;;;;;5020691;28;20078;-75
2021/04/25 04:00:39;;;;;;;2.03;1.00;;;;;;;;;;5020099;28;20095;-75
2021/04/25 04:03:05;;;;;;;2.53;1.10;;;;;;;;;;5019931;28;20079;-75
2021/04/25 04:05:30;;;;;;;1.80;1.00;;;;;;;;;;5019882;28;20110;-75
2021/04/25 04:07:56;;;;;;;1.83;1.03;;;;;;;;;;5020019;28;20107;-75
2021/04/25 04:10:21;;;;;;;2.33;1.10;;;;;;;;;;5019888;28;20033;-75
2021/04/25 04:12:46;;;;;;;1.47;1.00;;;;;;;;;;5019946;28;20048;-76
2021/04/25 04:15:12;;;;;;;1.90;1.10;;;;;;;;;;5020109;28;20068;-75
2021/04/25 04:17:38;;;;;;;2.20;1.25;;;;;;;;;;5019954;28;20040;-75
2021/04/25 04:20:04;;;;;;;2.60;1.33;;;;;;;;;;5019001;28;20119;-75
2021/04/25 04:22:29;;;;;;;2.10;1.08;;;;;;;;;;5019703;28;20037;-75
2021/04/25 04:24:55;;;;;;;2.00;1.10;;;;;;;;;;5019607;28;20102;-75
2021/04/25 04:27:20;;;;;;;2.40;1.27;;;;;;;;;;5036103;28;20070;-75
2021/04/25 04:29:45;;;;;;;3.70;1.30;;;;;;;;;;5036121;28;20029;-75
2021/04/25 04:32:11;;;;;;;1.77;1.03;;;;;;;;;;5036146;28;20063;-75
2021/04/25 04:34:37;;;;;;;1.87;1.13;;;;;;;;;;5019479;28;20063;-75
2021/04/25 04:37:02;;;;;;;3.03;1.30;;;;;;;;;;5019756;28;20033;-76
2021/04/25 04:39:28;;;;;;;2.03;1.20;;;;;;;;;;5035995;28;20040;-75
2021/04/25 04:41:53;;;;;;;2.43;1.30;;;;;;;;;;5019434;28;20075;-75
2021/04/25 04:44:18;;;;;;;2.87;1.10;;;;;;;;;;5019495;28;20068;-75
2021/04/25 04:46:44;;;;;;;2.17;1.00;;;;;;;;;;5019205;28;20064;-76
2021/04/25 04:49:09;;;;;;;1.90;1.10;;;;;;;;;;5019239;28;20118;-75
2021/04/25 04:51:34;;;;;;;2.33;1.10;;;;;;;;;;5019339;28;20474;-76
2021/04/25 04:54:00;;;;;;;2.80;1.10;;;;;;;;;;5019285;28;20041;-77
2021/04/25 04:56:25;;;;;;;2.40;1.00;;;;;;;;;;5019203;28;20036;-77
2021/04/25 04:58:50;;;;;;;2.30;1.33;;;;;;;;;;5019191;28;20119;-77
2021/04/25 05:01:16;;;;;;;2.70;1.20;;;;;;;;;;5035734;28;20072;-76
2021/04/25 05:03:41;;;;;;;2.90;1.00;;;;;;;;;;5035797;28;20448;-76
2021/04/25 05:06:06;;;;;;;1.90;1.03;;;;;;;;;;5019114;28;20537;-76
2021/04/25 05:08:32;;;;;;;1.93;1.03;;;;;;;;;;5019085;28;20076;-76
2021/04/25 05:10:57;;;;;;;2.40;1.23;;;;;;;;;;5019134;28;20071;-77
2021/04/25 05:13:22;;;;;;;2.10;1.27;;;;;;;;;;5018910;28;20064;-76
2021/04/25 05:15:48;;;;;;;2.17;1.17;;;;;;;;;;5035502;28;20037;-76
2021/04/25 05:18:13;;;;;;;2.20;1.20;;;;;;;;;;5019069;28;20123;-76
2021/04/25 05:20:38;;;;;;;2.53;1.20;;;;;;;;;;5030375;28;20117;-77
2021/04/25 05:23:04;;;;;;;2.70;1.30;;;;;;;;;;5038419;28;20097;-76
2021/04/25 05:25:29;;;;;;;2.93;1.47;;;;;;;;;;5038500;28;20491;-76
2021/04/25 05:27:55;;;;;;;2.43;1.40;;;;;;;;;;5038529;28;20033;-76
2021/04/25 05:30:20;;;;;;;2.40;1.07;;;;;;;;;;5038166;28;20036;-76
2021/04/25 05:32:45;;;;;;;2.47;1.30;;;;;;;;;;5038534;28;20029;-76
2021/04/25 05:35:11;;;;;;;2.60;1.33;;;;;;;;;;5038247;28;20036;-76
2021/04/25 05:37:36;;;;;;;2.07;1.10;;;;;;;;;;5038476;28;20032;-76
2021/04/25 05:40:04;;;;;;;2.23;1.30;;;;;;;;;;5038530;28;20495;-76
2021/04/25 05:42:29;;;;;;;2.47;1.30;;;;;;;;;;5038292;28;20044;-76
2021/04/25 05:44:54;;;;;;;1.83;1.23;;;;;;;;;;5038310;28;20032;-76
2021/04/25 05:47:20;;;;;;;2.70;1.10;;;;;;;;;;5038441;28;20028;-76
2021/04/25 05:49:45;;;;;;;2.83;1.37;;;;;;;;;;5038336;28;20085;-76
2021/04/25 05:52:11;;;;;;;2.00;1.17;;;;;;;;;;5038517;28;20059;-76
2021/04/25 05:54:36;;;;;;;2.03;1.20;;;;;;;;;;5038369;28;20029;-76
2021/04/25 05:57:01;;;;;;;2.60;1.40;;;;;;;;;;5038181;28;20079;-76
2021/04/25 05:59:27;;;;;;;2.90;1.33;;;;;;;;;;5035451;28;20132;-76
2021/04/25 06:01:52;;;;;;;2.90;1.40;;;;;;;;;;5018336;28;20483;-76
2021/04/25 06:04:17;;;;;;;2.53;1.30;;;;;;;;;;5018408;28;20123;-76
2021/04/25 06:06:43;;;;;;;2.13;1.37;;;;;;;;;;5018297;28;20122;-76
2021/04/25 06:09:08;;;;;;;2.20;1.30;;;;;;;;;;5018340;28;20061;-76
2021/04/25 06:11:34;;;;;;;2.37;1.37;;;;;;;;;;5018213;28;20045;-76
2021/04/25 06:14:00;;;;;;;2.30;1.38;;;;;;;;;;5047336;23;20580;-74
2021/04/25 06:16:25;;;;;;;1.90;1.27;;;;;;;;;;5034881;28;20029;-74
2021/04/25 06:18:51;;;;;;;2.10;1.30;;;;;;;;;;5034836;28;20537;-74
2021/04/25 06:21:16;;;;;;;2.43;1.20;;;;;;;;;;5051413;28;20499;-74
2021/04/25 06:23:41;;;;;;;2.53;1.43;;;;;;;;;;5051249;28;20503;-73
2021/04/25 06:26:07;;;;;;;3.30;1.60;;;;;;;;;;5051420;28;20053;-75
2021/04/25 06:28:32;;;;;;;2.67;1.50;;;;;;;;;;5051243;28;20064;-75
2021/04/25 06:30:58;;;;;;;2.47;1.40;;;;;;;;;;5051280;28;20071;-75
2021/04/25 06:33:23;;;;;;;3.63;1.50;;;;;;;;;;5051268;28;20056;-75
2021/04/25 06:35:49;;;;;;;2.17;1.20;;;;;;;;;;5052147;28;20025;-72
2021/04/25 06:38:15;;;;;;;2.30;1.30;;;;;;;;;;5030357;28;20152;-72
2021/04/25 06:40:40;;;;;;;2.45;1.38;;;;;;;;;;5047412;28;20111;-72
2021/04/25 06:43:06;;;;;;;2.40;1.20;;;;;;;;;;5049624;28;20094;-72
2021/04/25 06:45:31;;;;;;;2.90;1.60;;;;;;;;;;5052238;28;20083;-72
2021/04/25 06:47:56;;;;;;;3.00;1.80;;;;;;;;;;5051171;28;20037;-72
2021/04/25 06:50:22;;;;;;;3.43;1.30;;;;;;;;;;5051989;28;20518;-73
2021/04/25 06:52:47;;;;;;;2.33;1.33;;;;;;;;;;5050970;28;20436;-73
2021/04/25 06:55:17;;;;;;;2.33;1.40;;;;;;;;;;5050774;28;20400;-74
2021/04/25 06:57:43;;;;;;;2.25;1.20;;;;;;;;;;5050795;28;20103;-73
2021/04/25 07:00:09;;;;;;;4.18;1.63;;;;;;;;;;5050731;28;20035;-73
2021/04/25 07:02:35;;;;;;;3.37;1.70;;;;;;;;;;5033696;28;20033;-73
2021/04/25 07:05:01;;;;;;;1.83;1.13;;;;;;;;;;5034034;28;20055;-73
2021/04/25 07:07:26;;;;;;;2.63;1.52;;;;;;;;;;5049925;28;20037;-75
2021/04/25 07:09:51;;;;;;;3.77;1.70;;;;;;;;;;5050670;28;20124;-75
2021/04/25 07:12:17;;;;;;;2.23;1.27;;;;;;;;;;5050628;28;20067;-75
2021/04/25 07:14:42;;;;;;;2.83;1.60;;;;;;;;;;5050512;28;20131;-74
2021/04/25 07:17:07;;;;;;;3.57;1.80;;;;;;;;;;5033741;28;20068;-75
2021/04/25 07:19:33;;;;;;;3.50;1.63;;;;;;;;;;5051325;28;20052;-75
2021/04/25 07:21:58;;;;;;;2.23;1.43;;;;;;;;;;5033703;28;20033;-75
2021/04/25 07:24:23;;;;;;;2.67;1.57;;;;;;;;;;5050314;28;20029;-74
2021/04/25 07:26:49;;;;;;;2.80;1.50;;;;;;;;;;5050231;28;20028;-75
2021/04/25 07:29:14;;;;;;;2.77;1.50;;;;;;;;;;5033793;28;20064;-75
2021/04/25 07:31:40;;;;;;;2.58;1.60;;;;;;;;;;5033210;28;20119;-75
2021/04/25 07:34:06;;;;;;;2.27;1.47;;;;;;;;;;5033629;28;20404;-75
2021/04/25 07:36:31;;;;;;;3.30;1.60;;;;;;;;;;5050056;28;20056;-75
2021/04/25 07:38:56;;;;;;;3.47;1.47;;;;;;;;;;5033367;28;20032;-75
2021/04/25 07:41:21;;;;;;;2.37;1.40;;;;;;;;;;5049771;28;20518;-75
2021/04/25 07:43:47;;;;;;;3.07;1.50;;;;;;;;;;5051046;28;20555;-76
2021/04/25 07:46:12;;;;;;;2.70;1.50;;;;;;;;;;5033466;28;20439;-75
2021/04/25 07:48:38;;;;;;;2.67;1.47;;;;;;;;;;5033322;28;20112;-75
2021/04/25 07:51:03;;;;;;;2.57;1.30;;;;;;;;;;5049801;28;20116;-75
2021/04/25 07:53:29;;;;;;;3.77;1.30;;;;;;;;;;5049542;28;20111;-75
2021/04/25 07:55:54;;;;;;;3.03;1.70;;;;;;;;;;5033013;28;20737;-75
2021/04/25 07:58:20;;;;;;;2.23;1.27;;;;;;;;;;5051290;28;20118;-76
2021/04/25 08:00:45;;;;;;;3.00;1.60;;;;;;;;;;5050854;28;20064;-76
2021/04/25 08:03:11;;;;;;;2.60;1.60;;;;;;;;;;5049509;28;20029;-76
2021/04/25 08:05:36;;;;;;;2.23;1.37;;;;;;;;;;5032544;28;20427;-76
2021/04/25 08:08:02;;;;;;;2.57;1.40;;;;;;;;;;5033189;28;20135;-76
2021/04/25 08:10:27;;;;;;;2.63;1.53;;;;;;;;;;5049673;28;20118;-75
2021/04/25 08:12:53;;;;;;;2.67;1.70;;;;;;;;;;5049274;28;20487;-76
2021/04/25 08:15:18;;;;;;;1.80;1.10;;;;;;;;;;5049370;28;20413;-77
2021/04/25 08:17:43;;;;;;;3.57;1.50;;;;;;;;;;5049024;28;20130;-75
2021/04/25 08:20:09;;;;;;;3.13;1.50;;;;;;;;;;5032873;28;20599;-76
2021/04/25 08:22:35;;;;;;;2.63;1.52;;;;;;;;;;5032502;28;20116;-76
2021/04/25 08:25:01;;;;;;;3.17;1.43;;;;;;;;;;5049027;28;20045;-76
2021/04/25 08:27:26;;;;;;;2.50;1.53;;;;;;;;;;5032540;28;20082;-76
2021/04/25 08:29:51;;;;;;;3.53;1.87;;;;;;;;;;5050157;28;20079;-74
2021/04/25 08:32:17;;;;;;;2.80;1.40;;;;;;;;;;5050281;28;20063;-74
2021/04/25 08:34:42;;;;;;;2.43;1.47;;;;;;;;;;5048971;28;20033;-75
2021/04/25 08:37:07;;;;;;;2.13;1.40;;;;;;;;;;5050111;28;20065;-75
2021/04/25 08:39:33;;;;;;;3.10;1.60;;;;;;;;;;5050231;28;20068;-74
2021/04/25 08:41:58;;;;;;;2.40;1.40;;;;;;;;;;5048655;28;20056;-76
2021/04/25 08:44:24;;;;;;;2.70;1.40;;;;;;;;;;5031952;28;20634;-76
2021/04/25 08:46:50;;;;;;;2.80;1.50;;;;;;;;;;5032205;28;20549;-76
2021/04/25 08:49:23;;;;;;;3.63;1.60;;;;;;;;;;5032273;28;20043;-76
2021/04/25 08:51:48;;;;;;;2.28;1.33;;;;;;;;;;5049879;28;20483;-76
2021/04/25 08:54:14;;;;;;;1.97;1.40;;;;;;;;;;5031840;28;20059;-76
2021/04/25 08:56:39;;;;;;;3.40;1.70;;;;;;;;;;5015402;28;20095;-76
2021/04/25 08:59:05;;;;;;;2.70;1.40;;;;;;;;;;5048761;28;20033;-76
2021/04/25 09:01:30;;;;;;;2.88;1.60;;;;;;;;;;5031868;28;20407;-76
2021/04/25 09:03:56;;;;;;;2.33;1.60;;;;;;;;;;5048423;28;20052;-76
2021/04/25 09:06:21;;;;;;;2.47;1.50;;;;;;;;;;5048965;28;20505;-76
2021/04/25 09:12:59;;;;;;;3.25;1.45;;;;;;;;;;5048759;28;20052;-76
2021/04/25 09:15:46;;;;;;;2.65;1.48;;;;;;;;;;5049510;28;20048;-75
2021/04/25 09:21:33;;;;;;;3.17;1.60;;;;;;;;;;5049848;28;20371;-76
2021/04/25 09:24:19;;;;;;;3.00;1.40;;;;;;;;;;5048084;28;20426;-75
2021/04/25 09:26:44;;;;;;;2.40;1.45;;;;;;;;;;5050559;28;20033;-76
2021/04/25 09:29:10;;;;;;;3.30;1.80;;;;;;;;;;5035311;28;20115;-74
2021/04/25 09:31:41;;;;;;;2.93;1.50;;;;;;;;;;5051859;28;20071;-74
2021/04/25 09:34:06;;;;;;;2.95;1.45;;;;;;;;;;5053122;28;20488;-74
2021/04/25 09:36:33;;;;;;;2.90;1.50;;;;;;;;;;5018659;28;20063;-74
2021/04/25 09:39:16;;;;;;;2.72;1.33;;;;;;;;;;5035425;28;20090;-74
2021/04/25 09:41:41;;;;;;;2.70;1.60;;;;;;;;;;5035423;28;20083;-74
2021/04/25 09:44:07;;;;;;;2.10;1.40;;;;;;;;;;5035050;28;20486;-74
2021/04/25 09:46:55;;;;;;;2.77;1.40;;;;;;;;;;5035262;28;20035;-74
2021/04/25 09:49:39;;;;;;;2.88;1.40;;;;;;;;;;5035893;28;20033;-74
2021/04/25 09:52:06;;;;;;;3.00;1.60;;;;;;;;;;5051898;28;20037;-75
2021/04/25 09:54:31;;;;;;;2.70;1.40;;;;;;;;;;5018761;28;20435;-74
2021/04/25 09:56:57;;;;;;;2.70;1.40;;;;;;;;;;5035637;28;20029;-74
2021/04/25 09:59:22;;;;;;;2.33;1.47;;;;;;;;;;5035349;28;20037;-74
2021/04/25 10:01:48;;;;;;;3.17;1.40;;;;;;;;;;5035305;28;20029;-74
2021/04/25 10:04:49;;;;;;;2.40;1.40;;;;;;;;;;5052849;28;20531;-74
2021/04/25 10:07:14;;;;;;;2.88;1.50;;;;;;;;;;4959292;28;20045;-75
2021/04/25 10:09:40;;;;;;;3.70;1.63;;;;;;;;;;5018301;28;20041;-74
2021/04/25 10:12:05;;;;;;;2.70;1.40;;;;;;;;;;5034850;28;20508;-74
2021/04/25 10:14:32;;;;;;;3.50;1.50;;;;;;;;;;5034957;28;20041;-74
2021/04/25 10:16:58;;;;;;;3.67;1.63;;;;;;;;;;5036055;28;20029;-74
2021/04/25 10:19:23;;;;;;;3.10;1.50;;;;;;;;;;5038802;28;20395;-74
2021/04/25 10:21:49;;;;;;;2.00;1.37;;;;;;;;;;5038727;28;20442;-75
2021/04/25 10:24:19;;;;;;;3.00;1.50;;;;;;;;;;5038538;28;20040;-74
2021/04/25 10:27:09;;;;;;;2.70;1.45;;;;;;;;;;5038918;28;20032;-74
2021/04/25 10:29:35;;;;;;;2.47;1.60;;;;;;;;;;5055400;28;20029;-74
2021/04/25 10:32:03;;;;;;;3.45;1.80;;;;;;;;;;5038420;28;20399;-74
2021/04/25 10:34:28;;;;;;;2.83;1.60;;;;;;;;;;5038597;28;20036;-74
2021/04/25 10:36:56;;;;;;;2.17;1.33;;;;;;;;;;5056115;28;20029;-74
2021/04/25 10:39:38;;;;;;;3.30;1.67;;;;;;;;;;5056308;28;20488;-74
2021/04/25 10:42:15;;;;;;;3.30;1.60;;;;;;;;;;5055348;28;20502;-75
2021/04/25 10:47:40;;;;;;;2.92;1.50;;;;;;;;;;5056373;28;20094;-74
2021/04/25 10:50:14;;;;;;;3.05;1.50;;;;;;;;;;5054859;28;20025;-74
2021/04/25 10:52:40;;;;;;;2.97;1.60;;;;;;;;;;5054738;28;20086;-74
2021/04/25 10:55:12;;;;;;;2.30;1.45;;;;;;;;;;5038444;28;20434;-74
2021/04/25 10:58:08;;;;;;;2.85;1.58;;;;;;;;;;5054684;28;20040;-74
2021/04/25 11:00:37;;;;;;;4.38;1.60;;;;;;;;;;5054555;28;20060;-74
2021/04/25 11:03:04;;;;;;;3.75;1.60;;;;;;;;;;5054422;28;20037;-75
2021/04/25 11:05:35;;;;;;;3.05;1.60;;;;;;;;;;5037832;28;20433;-74
2021/04/25 11:08:01;;;;;;;3.63;1.80;;;;;;;;;;5056107;28;20039;-75
2021/04/25 11:10:49;;;;;;;3.97;1.70;;;;;;;;;;5037929;28;20411;-74
2021/04/25 11:13:36;;;;;;;2.63;1.52;;;;;;;;;;5037880;28;20040;-75
2021/04/25 11:16:17;;;;;;;2.67;1.50;;;;;;;;;;5055786;28;20396;-74
2021/04/25 11:18:44;;;;;;;3.45;1.65;;;;;;;;;;5054640;28;20052;-74
2021/04/25 11:24:15;;;;;;;3.15;1.60;;;;;;;;;;5055795;28;20037;-75
2021/04/25 11:26:49;;;;;;;3.30;1.77;;;;;;;;;;5053169;28;20044;-74
2021/04/25 11:29:38;;;;;;;3.10;1.58;;;;;;;;;;5021109;28;20416;-74
2021/04/25 11:32:04;;;;;;;3.03;1.50;;;;;;;;;;5045024;28;20040;-74
2021/04/25 11:34:30;;;;;;;3.40;1.67;;;;;;;;;;5020959;28;20114;-74
2021/04/25 11:37:06;;;;;;;2.75;1.55;;;;;;;;;;5055339;28;20080;-74
2021/04/25 11:39:43;;;;;;;4.18;1.80;;;;;;;;;;5054201;28;20483;-74
2021/04/25 11:42:10;;;;;;;2.72;1.67;;;;;;;;;;5037441;28;20037;-74
2021/04/25 11:44:37;;;;;;;2.47;1.50;;;;;;;;;;5037215;28;20059;-74
2021/04/25 11:47:13;;;;;;;3.30;1.40;;;;;;;;;;5037269;28;20072;-74
2021/04/25 11:49:40;;;;;;;2.60;1.40;;;;;;;;;;5037432;28;20411;-75
2021/04/25 11:52:35;;;;;;;4.82;1.90;;;;;;;;;;5020784;28;20048;-75
2021/04/25 11:55:19;;;;;;;3.17;1.48;;;;;;;;;;5041948;28;20041;-75
2021/04/25 11:57:47;;;;;;;2.63;1.52;;;;;;;;;;5036986;28;20504;-75
2021/04/25 12:00:17;;;;;;;3.45;1.60;;;;;;;;;;5021081;28;20415;-75
2021/04/25 12:02:47;;;;;;;4.15;1.70;;;;;;;;;;5053509;28;20033;-75
2021/04/25 12:05:19;;;;;;;2.92;1.33;;;;;;;;;;5036578;28;20502;-75
2021/04/25 12:07:54;;;;;;;3.60;1.60;;;;;;;;;;5021051;28;20404;-74
2021/04/25 12:10:38;;;;;;;4.20;1.73;;;;;;;;;;5053217;28;20040;-74
2021/04/25 12:13:10;;;;;;;4.55;1.70;;;;;;;;;;5050813;23;20064;-76
2021/04/25 12:15:41;;;;;;;2.70;1.40;;;;;;;;;;5076311;28;20033;-76
2021/04/25 12:18:06;;;;;;;2.42;1.33;;;;;;;;;;5072866;28;20582;-76
2021/04/25 12:20:31;;;;;;;3.70;1.50;;;;;;;;;;5073091;28;20074;-76
2021/04/25 12:22:57;;;;;;;4.60;1.77;;;;;;;;;;5072805;28;20135;-76
2021/04/25 12:25:22;;;;;;;3.13;1.50;;;;;;;;;;5089623;28;20040;-76
2021/04/25 12:27:52;;;;;;;2.83;1.30;;;;;;;;;;5072745;28;20044;-76
2021/04/25 12:30:19;;;;;;;3.35;1.60;;;;;;;;;;5072964;28;20040;-76
2021/04/25 12:32:44;;;;;;;3.70;1.50;;;;;;;;;;5072831;28;20037;-76
2021/04/25 12:35:10;;;;;;;3.73;1.87;;;;;;;;;;5072569;28;20070;-76
2021/04/25 12:37:39;;;;;;;3.30;1.50;;;;;;;;;;5092804;28;20032;-76
2021/04/25 12:40:06;;;;;;;2.33;1.45;;;;;;;;;;5058687;28;20147;-76
2021/04/25 12:42:31;;;;;;;3.03;1.60;;;;;;;;;;5059097;28;20028;-76
2021/04/25 12:44:57;;;;;;;3.17;1.57;;;;;;;;;;5092605;28;20059;-76
2021/04/25 12:47:30;;;;;;;2.97;1.40;;;;;;;;;;5092743;28;20040;-75
2021/04/25 12:49:55;;;;;;;2.63;1.42;;;;;;;;;;5075959;28;20038;-76
2021/04/25 12:52:35;;;;;;;2.77;1.50;;;;;;;;;;5092697;28;20032;-76
2021/04/25 12:55:00;;;;;;;2.67;1.40;;;;;;;;;;5059171;28;20055;-76
2021/04/25 12:57:29;;;;;;;4.17;1.50;;;;;;;;;;5075576;28;20054;-76
2021/04/25 12:59:54;;;;;;;4.03;1.70;;;;;;;;;;5075480;28;20097;-76
2021/04/25 13:02:19;;;;;;;2.20;1.30;;;;;;;;;;5075531;28;20521;-76
2021/04/25 13:04:51;;;;;;;3.53;1.80;;;;;;;;;;5075571;28;20052;-76
2021/04/25 13:07:27;;;;;;;3.00;1.67;;;;;;;;;;5075502;28;20089;-76
2021/04/25 13:10:11;;;;;;;3.65;1.60;;;;;;;;;;5092375;28;20081;-76
2021/04/25 13:12:50;;;;;;;2.65;1.50;;;;;;;;;;5092201;28;20031;-76
2021/04/25 13:15:33;;;;;;;2.42;1.30;;;;;;;;;;5075342;28;20050;-76
2021/04/25 13:18:09;;;;;;;3.85;1.80;;;;;;;;;;5092164;28;20040;-76
2021/04/25 13:20:51;;;;;;;3.50;1.55;;;;;;;;;;5076130;28;20039;-76
2021/04/25 13:23:19;;;;;;;3.28;1.52;;;;;;;;;;5058563;28;20425;-76
2021/04/25 13:25:46;;;;;;;3.80;1.50;;;;;;;;;;5090372;28;20376;-76
2021/04/25 13:28:12;;;;;;;2.70;1.40;;;;;;;;;;5072166;28;20029;-76
2021/04/25 13:30:49;;;;;;;3.20;1.55;;;;;;;;;;5055113;28;20033;-76
2021/04/25 13:33:18;;;;;;;3.58;1.45;;;;;;;;;;5055201;28;20106;-76
2021/04/25 13:35:44;;;;;;;2.70;1.33;;;;;;;;;;5071920;28;20033;-76
2021/04/25 13:38:10;;;;;;;2.58;1.42;;;;;;;;;;5071831;28;20111;-76
2021/04/25 13:40:35;;;;;;;3.20;1.47;;;;;;;;;;5088573;28;20037;-76
2021/04/25 13:43:01;;;;;;;3.53;1.40;;;;;;;;;;5088409;28;20033;-76
2021/04/25 13:45:27;;;;;;;3.47;1.40;;;;;;;;;;5088594;28;20032;-76
2021/04/25 13:47:52;;;;;;;2.85;1.50;;;;;;;;;;5055041;28;20127;-75
2021/04/25 13:50:18;;;;;;;3.00;1.57;;;;;;;;;;5088837;28;20068;-76
2021/04/25 13:52:43;;;;;;;2.47;1.40;;;;;;;;;;5073871;28;20119;-76
2021/04/25 13:55:09;;;;;;;3.67;1.43;;;;;;;;;;5075693;28;20060;-76
2021/04/25 13:57:34;;;;;;;3.07;1.53;;;;;;;;;;5092773;28;20035;-76
2021/04/25 14:00:01;;;;;;;2.17;1.30;;;;;;;;;;5092596;28;20356;-76
2021/04/25 14:02:26;;;;;;;2.95;1.48;;;;;;;;;;5075565;28;20032;-76
2021/04/25 14:04:52;;;;;;;2.37;1.40;;;;;;;;;;5075480;28;20060;-76
2021/04/25 14:07:17;;;;;;;2.53;1.47;;;;;;;;;;5092456;28;20041;-76
2021/04/25 14:09:42;;;;;;;2.07;1.33;;;;;;;;;;5092596;28;20072;-76
2021/04/25 14:12:08;;;;;;;2.63;1.30;;;;;;;;;;5075422;28;20509;-76
2021/04/25 14:14:33;;;;;;;2.47;1.37;;;;;;;;;;5075228;28;20445;-76
2021/04/25 14:16:59;;;;;;;3.63;1.40;;;;;;;;;;5092173;28;20371;-76
2021/04/25 14:19:24;;;;;;;2.77;1.40;;;;;;;;;;5075397;28;20454;-76
2021/04/25 14:21:50;;;;;;;2.90;1.60;;;;;;;;;;5092127;28;20032;-76
2021/04/25 14:24:16;;;;;;;3.00;1.57;;;;;;;;;;5075083;28;20028;-76
2021/04/25 14:26:42;;;;;;;2.03;1.30;;;;;;;;;;5091954;28;20410;-76
2021/04/25 14:29:07;;;;;;;2.95;1.40;;;;;;;;;;5091998;28;20090;-76
2021/04/25 14:31:32;;;;;;;2.50;1.40;;;;;;;;;;5075209;28;20052;-76
2021/04/25 14:33:58;;;;;;;3.40;1.57;;;;;;;;;;5092074;28;20082;-76
2021/04/25 14:36:23;;;;;;;2.00;1.20;;;;;;;;;;5074859;28;20064;-76
2021/04/25 14:38:48;;;;;;;3.20;1.33;;;;;;;;;;5074842;28;20067;-76
2021/04/25 14:41:14;;;;;;;3.43;1.63;;;;;;;;;;5091740;28;20056;-76
2021/04/25 14:43:40;;;;;;;3.20;1.70;;;;;;;;;;5091802;28;20032;-76
2021/04/25 14:46:07;;;;;;;2.73;1.43;;;;;;;;;;5091611;28;20067;-76
2021/04/25 14:48:33;;;;;;;2.85;1.40;;;;;;;;;;5091604;28;20032;-76
2021/04/25 14:50:59;;;;;;;2.13;1.30;;;;;;;;;;5091549;28;20045;-75
2021/04/25 14:53:24;;;;;;;2.85;1.38;;;;;;;;;;5074668;28;20085;-76
2021/04/25 14:55:49;;;;;;;2.67;1.33;;;;;;;;;;5091560;28;20056;-76